createdAt,value
2018-03-08T00:01:52.810Z,3.00
2018-03-08T00:04:19.584Z,3.57
2018-03-08T00:06:46.450Z,3.70
2018-03-08T00:09:13.563Z,2.90
2018-03-08T00:11:40.438Z,3.00
2018-03-08T00:14:08.078Z,3.47
2018-03-08T00:16:34.932Z,3.70
2018-03-08T00:19:01.317Z,3.70
2018-03-08T00:21:28.116Z,3.33
2018-03-08T00:23:55.167Z,3.93
2018-03-08T00:26:21.852Z,4.07
2018-03-08T00:28:48.786Z,3.07
2018-03-08T00:31:15.897Z,3.33
2018-03-08T00:33:42.772Z,3.13
2018-03-08T00:36:09.916Z,3.43
2018-03-08T00:38:36.329Z,3.10
2018-03-08T00:41:03.600Z,3.17
2018-03-08T00:43:30.454Z,3.20
2018-03-08T00:45:57.680Z,2.57
2018-03-08T00:48:24.778Z,3.97
2018-03-08T00:50:51.913Z,2.47
2018-03-08T00:53:18.580Z,3.87
2018-03-08T00:55:45.743Z,4.00
2018-03-08T00:58:12.537Z,3.30
2018-03-08T01:00:39.836Z,3.63
2018-03-08T01:03:07.182Z,2.90
2018-03-08T01:05:34.442Z,3.33
2018-03-08T01:08:01.109Z,3.27
2018-03-08T01:10:28.645Z,3.20
2018-03-08T01:12:55.639Z,3.33
2018-03-08T01:15:22.800Z,3.20
2018-03-08T01:17:49.424Z,3.03
2018-03-08T01:20:16.766Z,2.83
2018-03-08T01:22:43.801Z,2.93
2018-03-08T01:25:10.974Z,3.20
2018-03-08T01:27:37.904Z,2.80
2018-03-08T01:30:04.972Z,2.93
2018-03-08T01:32:31.335Z,2.60
2018-03-08T01:34:58.853Z,2.40
2018-03-08T01:37:25.919Z,3.57
2018-03-08T01:39:52.971Z,2.50
2018-03-08T01:42:19.945Z,2.37
2018-03-08T01:44:46.494Z,2.53
2018-03-08T01:47:13.604Z,2.53
2018-03-08T01:49:40.447Z,2.43
2018-03-08T01:52:10.878Z,2.43
2018-03-08T01:54:37.280Z,3.70
2018-03-08T01:57:04.546Z,3.33
2018-03-08T01:59:30.917Z,2.20
2018-03-08T02:01:57.780Z,4.30
2018-03-08T02:04:24.676Z,2.27
2018-03-08T02:06:51.588Z,3.03
2018-03-08T02:09:17.955Z,3.27
2018-03-08T02:11:45.071Z,3.13
2018-03-08T02:14:11.579Z,3.43
2018-03-08T02:16:38.669Z,3.33
2018-03-08T02:19:05.624Z,3.80
2018-03-08T02:21:32.740Z,3.37
2018-03-08T02:23:59.624Z,2.73
2018-03-08T02:26:26.668Z,3.13
2018-03-08T02:28:53.038Z,3.93
2018-03-08T02:31:20.577Z,5.07
2018-03-08T02:33:47.608Z,2.90
2018-03-08T02:36:14.598Z,2.40
2018-03-08T02:38:41.535Z,2.73
2018-03-08T02:41:07.918Z,2.50
2018-03-08T02:43:34.950Z,3.47
2018-03-08T02:46:02.596Z,2.63
2018-03-08T02:48:29.352Z,2.50
2018-03-08T02:50:56.283Z,2.73
2018-03-08T02:53:23.129Z,2.73
2018-03-08T02:55:50.249Z,2.83
2018-03-08T02:58:17.237Z,2.63
2018-03-08T03:00:44.190Z,3.77
2018-03-08T03:03:10.608Z,2.70
2018-03-08T03:05:38.075Z,2.97
2018-03-08T03:08:05.030Z,2.43
2018-03-08T03:10:31.829Z,2.20
2018-03-08T03:12:58.442Z,4.77
2018-03-08T03:15:25.671Z,2.03
2018-03-08T03:17:52.653Z,2.30
2018-03-08T03:20:19.580Z,3.57
2018-03-08T03:22:46.623Z,2.80
2018-03-08T03:25:13.719Z,2.33
2018-03-08T03:27:41.249Z,2.93
2018-03-08T03:30:07.657Z,2.90
2018-03-08T03:32:34.620Z,2.83
2018-03-08T03:35:01.647Z,1.90
2018-03-08T03:37:28.458Z,1.80
2018-03-08T03:39:55.591Z,2.87
2018-03-08T03:42:22.468Z,2.90
2018-03-08T03:44:49.578Z,2.60
2018-03-08T03:47:16.548Z,2.33
2018-03-08T03:49:43.341Z,2.70
2018-03-08T03:52:10.356Z,3.70
2018-03-08T03:54:37.345Z,2.63
2018-03-08T03:57:04.343Z,4.60
2018-03-08T03:59:31.393Z,3.10
2018-03-08T04:01:57.780Z,1.97
2018-03-08T04:04:25.624Z,2.27
2018-03-08T04:06:52.649Z,2.30
2018-03-08T04:09:19.016Z,2.37
2018-03-08T04:11:46.048Z,2.70
2018-03-08T04:14:13.020Z,2.90
2018-03-08T04:16:39.655Z,1.80
2018-03-08T04:19:06.405Z,2.17
2018-03-08T04:21:33.632Z,1.93
2018-03-08T04:24:00.736Z,2.00
2018-03-08T04:26:28.204Z,2.73
2018-03-08T04:28:55.762Z,1.77
2018-03-08T04:31:23.393Z,2.10
2018-03-08T04:33:50.264Z,2.93
2018-03-08T04:36:17.830Z,3.10
2018-03-08T04:38:44.709Z,2.03
2018-03-08T04:41:11.608Z,2.17
2018-03-08T04:43:38.456Z,2.40
2018-03-08T04:46:04.820Z,2.50
2018-03-08T04:48:32.292Z,2.83
2018-03-08T04:50:59.117Z,1.93
2018-03-08T04:53:25.480Z,2.10
2018-03-08T04:55:52.372Z,2.50
2018-03-08T04:58:19.177Z,1.30
2018-03-08T05:00:46.077Z,1.60
2018-03-08T05:03:12.460Z,2.00
2018-03-08T05:05:40.076Z,1.77
2018-03-08T05:08:06.459Z,1.83
2018-03-08T05:10:34.176Z,1.50
2018-03-08T05:13:01.060Z,2.40
2018-03-08T05:15:27.912Z,2.10
2018-03-08T05:17:55.449Z,1.67
2018-03-08T05:20:21.815Z,2.40
2018-03-08T05:22:49.448Z,2.20
2018-03-08T05:25:16.407Z,1.83
2018-03-08T05:27:42.849Z,2.20
2018-03-08T05:30:09.223Z,2.43
2018-03-08T05:32:36.329Z,1.53
2018-03-08T05:35:03.488Z,1.70
2018-03-08T05:37:30.368Z,1.77
2018-03-08T05:39:57.995Z,2.10
2018-03-08T05:42:24.896Z,1.73
2018-03-08T05:44:51.271Z,1.70
2018-03-08T05:47:18.455Z,2.07
2018-03-08T05:49:45.625Z,2.43
2018-03-08T05:52:12.729Z,1.77
2018-03-08T05:54:39.358Z,1.77
2018-03-08T05:57:06.884Z,1.73
2018-03-08T05:59:34.018Z,1.77
2018-03-08T06:02:01.365Z,1.83
2018-03-08T06:04:28.641Z,2.20
2018-03-08T06:06:55.302Z,2.90
2018-03-08T06:09:22.632Z,3.50
2018-03-08T06:11:49.585Z,1.53
2018-03-08T06:14:16.939Z,1.87
2018-03-08T06:16:43.699Z,1.60
2018-03-08T06:19:10.058Z,1.50
2018-03-08T06:21:36.849Z,2.53
2018-03-08T06:24:03.225Z,1.50
2018-03-08T06:26:29.604Z,2.30
2018-03-08T06:28:56.242Z,2.40
2018-03-08T06:31:22.614Z,2.27
2018-03-08T06:33:49.022Z,2.20
2018-03-08T06:36:15.812Z,2.23
2018-03-08T06:38:42.641Z,1.90
2018-03-08T06:41:09.963Z,3.27
2018-03-08T06:43:37.067Z,2.27
2018-03-08T06:46:04.229Z,3.67
2018-03-08T06:48:30.782Z,1.70
2018-03-08T06:50:57.963Z,2.50
2018-03-08T06:53:25.093Z,2.03
2018-03-08T06:55:52.529Z,2.10
2018-03-08T06:58:19.183Z,2.80
2018-03-08T07:00:45.544Z,2.00
2018-03-08T07:03:12.641Z,3.03
2018-03-08T07:05:39.512Z,4.30
2018-03-08T07:08:06.357Z,5.30
2018-03-08T07:10:33.147Z,5.70
2018-03-08T07:13:00.589Z,4.00
2018-03-08T07:15:27.137Z,4.80
2018-03-08T07:17:53.926Z,4.70
2018-03-08T07:20:21.334Z,6.13
2018-03-08T07:22:47.737Z,5.90
2018-03-08T07:25:15.125Z,3.57
2018-03-08T07:27:41.552Z,4.53
2018-03-08T07:30:08.870Z,4.47
2018-03-08T07:32:35.523Z,3.67
2018-03-08T07:35:02.350Z,3.50
2018-03-08T07:37:29.668Z,4.17
2018-03-08T07:39:56.586Z,3.87
2018-03-08T07:42:23.503Z,3.30
2018-03-08T07:44:50.656Z,5.47
2018-03-08T07:47:18.384Z,3.10
2018-03-08T07:49:45.443Z,3.17
2018-03-08T07:52:11.840Z,2.83
2018-03-08T07:54:38.625Z,3.43
2018-03-08T07:57:04.993Z,2.90
2018-03-08T07:59:32.034Z,3.83
2018-03-08T08:01:59.008Z,5.90
2018-03-08T08:04:45.673Z,7.53
2018-03-08T08:07:30.438Z,7.60
2018-03-08T08:09:57.666Z,6.73
2018-03-08T08:12:24.506Z,9.27
2018-03-08T08:14:51.311Z,8.37
2018-03-08T08:17:18.636Z,7.00
2018-03-08T08:19:45.184Z,6.67
2018-03-08T08:22:11.977Z,7.10
2018-03-08T08:24:38.871Z,7.10
2018-03-08T08:27:06.132Z,6.90
2018-03-08T08:29:32.792Z,8.43
2018-03-08T08:31:59.510Z,7.60
2018-03-08T08:34:26.376Z,7.60
2018-03-08T08:36:53.767Z,7.13
2018-03-08T08:39:21.388Z,5.87
2018-03-08T08:41:48.187Z,6.87
2018-03-08T08:44:15.308Z,6.43
2018-03-08T08:46:41.724Z,6.23
2018-03-08T08:49:08.583Z,6.10
2018-03-08T08:51:35.285Z,5.43
2018-03-08T08:54:02.269Z,5.60
2018-03-08T08:56:29.106Z,7.10
2018-03-08T08:58:55.884Z,4.97
2018-03-08T09:01:22.621Z,4.60
2018-03-08T09:03:49.533Z,5.20
2018-03-08T09:06:16.780Z,4.77
2018-03-08T09:08:43.578Z,4.77
2018-03-08T09:11:10.490Z,5.27
2018-03-08T09:13:37.343Z,6.00
2018-03-08T09:16:03.722Z,4.87
2018-03-08T09:18:31.227Z,4.80
2018-03-08T09:20:58.119Z,7.00
2018-03-08T09:23:24.717Z,4.83
2018-03-08T09:25:51.096Z,4.90
2018-03-08T09:28:18.368Z,4.40
2018-03-08T09:30:44.792Z,4.47
2018-03-08T09:33:11.743Z,5.07
2018-03-08T09:35:38.120Z,5.47
2018-03-08T09:38:05.235Z,5.70
2018-03-08T09:40:31.774Z,5.77
2018-03-08T09:42:58.153Z,5.30
2018-03-08T09:45:25.269Z,5.20
2018-03-08T09:47:51.916Z,5.77
2018-03-08T09:50:18.280Z,4.80
2018-03-08T09:52:45.755Z,5.00
2018-03-08T09:55:12.972Z,4.13
2018-03-08T09:57:39.352Z,3.40
2018-03-08T10:00:06.472Z,3.90
2018-03-08T10:02:32.937Z,3.50
2018-03-08T10:05:00.061Z,3.73
2018-03-08T10:07:26.436Z,3.20
2018-03-08T10:10:00.815Z,4.00
2018-03-08T10:12:27.773Z,3.33
2018-03-08T10:14:55.618Z,3.10
2018-03-08T10:17:22.033Z,3.73
2018-03-08T10:19:48.856Z,2.77
2018-03-08T10:22:15.952Z,3.10
2018-03-08T10:24:42.359Z,4.60
2018-03-08T10:27:08.960Z,4.03
2018-03-08T10:29:35.357Z,2.80
2018-03-08T10:32:01.748Z,4.00
2018-03-08T10:34:28.785Z,2.40
2018-03-08T10:36:56.260Z,3.00
2018-03-08T10:41:50.371Z,2.63
2018-03-08T10:44:18.213Z,3.60
2018-03-08T10:46:44.664Z,2.57
2018-03-08T10:49:11.115Z,3.90
2018-03-08T10:51:38.136Z,5.03
2018-03-08T10:54:05.126Z,2.20
2018-03-08T10:56:32.051Z,4.67
2018-03-08T10:58:59.012Z,2.40
2018-03-08T11:01:25.854Z,2.70
2018-03-08T11:03:54.810Z,2.27
2018-03-08T11:06:27.685Z,3.13
2018-03-08T11:08:54.052Z,2.00
2018-03-08T11:11:20.441Z,2.43
2018-03-08T11:13:47.869Z,1.70
2018-03-08T11:16:14.787Z,1.73
2018-03-08T11:18:41.659Z,3.40
2018-03-08T11:21:08.609Z,2.80
2018-03-08T11:23:35.502Z,5.03
2018-03-08T11:26:02.360Z,4.23
2018-03-08T11:28:29.144Z,5.10
2018-03-08T11:30:55.637Z,4.37
2018-03-08T11:33:22.784Z,7.20
2018-03-08T11:35:50.343Z,3.33
2018-03-08T11:38:17.164Z,3.57
2018-03-08T11:40:43.531Z,3.17
2018-03-08T11:43:10.497Z,4.90
2018-03-08T11:45:37.503Z,3.83
2018-03-08T11:48:03.904Z,2.40
2018-03-08T11:50:31.104Z,4.40
2018-03-08T11:52:57.648Z,2.03
2018-03-08T11:55:24.857Z,2.87
2018-03-08T11:57:51.492Z,3.73
2018-03-08T12:00:18.906Z,3.37
2018-03-08T12:02:45.968Z,2.53
2018-03-08T12:05:13.727Z,3.43
2018-03-08T12:07:40.252Z,2.53
2018-03-08T12:10:06.908Z,2.90
2018-03-08T12:12:33.804Z,5.67
2018-03-08T12:15:00.649Z,2.13
2018-03-08T12:17:27.753Z,2.70
2018-03-08T12:19:54.701Z,2.80
2018-03-08T12:22:21.085Z,2.43
2018-03-08T12:24:48.648Z,3.30
2018-03-08T12:27:16.209Z,2.70
2018-03-08T12:29:43.836Z,3.43
2018-03-08T12:32:10.627Z,2.40
2018-03-08T12:34:37.725Z,2.70
2018-03-08T12:37:04.505Z,2.60
2018-03-08T12:39:31.857Z,2.17
2018-03-08T12:41:58.230Z,2.23
2018-03-08T12:44:24.601Z,2.10
2018-03-08T12:46:51.122Z,2.27
2018-03-08T12:49:17.484Z,2.53
2018-03-08T12:51:44.213Z,2.47
2018-03-08T12:54:11.875Z,2.37
2018-03-08T12:56:38.377Z,2.40
2018-03-08T12:59:05.530Z,1.80
2018-03-08T13:01:32.694Z,2.23
2018-03-08T13:04:00.269Z,2.23
2018-03-08T13:06:27.899Z,2.30
2018-03-08T13:08:54.264Z,2.00
2018-03-08T13:11:21.421Z,2.30
2018-03-08T13:13:48.844Z,3.30
2018-03-08T13:16:15.767Z,7.27
2018-03-08T13:18:42.270Z,7.20
2018-03-08T13:21:09.859Z,7.90
2018-03-08T13:23:36.231Z,11.40
2018-03-08T13:26:02.725Z,10.80
2018-03-08T13:28:30.464Z,9.40
2018-03-08T13:30:57.143Z,14.43
2018-03-08T13:33:24.268Z,7.37
2018-03-08T13:35:51.174Z,13.47
2018-03-08T13:38:17.977Z,11.73
2018-03-08T13:40:45.640Z,10.77
2018-03-08T13:43:12.751Z,7.40
2018-03-08T13:45:39.145Z,7.80
2018-03-08T13:48:06.705Z,5.80
2018-03-08T13:50:33.809Z,7.30
2018-03-08T13:53:00.185Z,6.80
2018-03-08T13:55:27.518Z,10.90
2018-03-08T13:57:53.879Z,5.07
2018-03-08T14:00:21.019Z,4.97
2018-03-08T14:02:47.774Z,6.53
2018-03-08T14:05:14.683Z,5.77
2018-03-08T14:07:41.609Z,5.07
2018-03-08T14:10:08.805Z,4.83
2018-03-08T14:12:35.728Z,5.80
2018-03-08T14:15:02.893Z,5.30
2018-03-08T14:17:30.066Z,4.87
2018-03-08T14:19:57.360Z,6.17
2018-03-08T14:22:24.918Z,5.57
2018-03-08T14:24:52.416Z,4.00
2018-03-08T14:27:19.312Z,9.13
2018-03-08T14:29:46.360Z,10.27
2018-03-08T14:32:13.257Z,3.77
2018-03-08T14:34:40.050Z,4.07
2018-03-08T14:37:06.948Z,4.00
2018-03-08T14:39:33.794Z,6.20
2018-03-08T14:42:00.649Z,9.50
2018-03-08T14:44:27.646Z,11.80
2018-03-08T14:46:54.640Z,6.97
2018-03-08T14:49:22.263Z,5.03
2018-03-08T14:51:48.641Z,5.63
2018-03-08T14:54:16.292Z,5.00
2018-03-08T14:56:44.040Z,4.53
2018-03-08T14:59:10.904Z,4.60
2018-03-08T15:01:37.768Z,3.90
2018-03-08T15:04:05.412Z,4.47
2018-03-08T15:06:31.796Z,3.90
2018-03-08T15:08:58.959Z,3.90
2018-03-08T15:11:26.565Z,6.20
2018-03-08T15:13:53.585Z,4.40
2018-03-08T15:16:20.822Z,3.53
2018-03-08T15:18:48.036Z,3.87
2018-03-08T15:21:15.189Z,4.00
2018-03-08T15:23:42.241Z,2.90
2018-03-08T15:26:09.013Z,4.30
2018-03-08T15:28:36.952Z,5.57
2018-03-08T15:31:03.907Z,5.20
2018-03-08T15:33:31.194Z,4.10
2018-03-08T15:35:58.358Z,3.03
2018-03-08T15:38:25.916Z,4.90
2018-03-08T15:40:53.082Z,4.83
2018-03-08T15:43:20.704Z,3.03
2018-03-08T15:45:47.787Z,3.00
2018-03-08T15:48:15.517Z,3.87
2018-03-08T15:50:42.131Z,2.50
2018-03-08T15:53:08.869Z,3.87
2018-03-08T15:55:35.814Z,3.30
2018-03-08T15:58:02.372Z,3.90
2018-03-08T16:00:28.922Z,3.97
2018-03-08T16:02:55.512Z,3.30
2018-03-08T16:05:21.876Z,2.37
2018-03-08T16:11:06.334Z,2.80
2018-03-08T16:13:32.715Z,2.70
2018-03-08T16:15:59.288Z,3.10
2018-03-08T16:18:26.584Z,3.47
2018-03-08T16:20:53.415Z,3.33
2018-03-08T16:23:20.407Z,2.57
2018-03-08T16:25:47.112Z,3.30
2018-03-08T16:28:13.848Z,4.03
2018-03-08T16:30:40.335Z,2.70
2018-03-08T16:33:06.713Z,4.50
2018-03-08T16:35:33.852Z,4.37
2018-03-08T16:38:00.574Z,5.40
2018-03-08T16:40:26.970Z,2.90
2018-03-08T16:42:53.837Z,2.90
2018-03-08T16:45:20.220Z,3.97
2018-03-08T16:47:47.148Z,2.37
2018-03-08T16:50:13.978Z,2.57
2018-03-08T16:52:40.354Z,2.83
2018-03-08T16:55:06.977Z,4.20
2018-03-08T16:57:33.348Z,6.00
2018-03-08T17:00:00.493Z,2.77
2018-03-08T17:02:27.131Z,2.83
2018-03-08T17:04:53.634Z,2.70
2018-03-08T17:07:20.034Z,4.10
2018-03-08T17:09:46.860Z,4.57
2018-03-08T17:12:13.624Z,3.37
2018-03-08T17:14:41.132Z,2.67
2018-03-08T17:17:08.181Z,3.00
2018-03-08T17:19:35.100Z,2.07
2018-03-08T17:22:02.790Z,1.93
2018-03-08T17:24:29.793Z,2.13
2018-03-08T17:26:56.162Z,3.27
2018-03-08T17:29:22.608Z,4.87
2018-03-08T17:31:49.309Z,3.90
2018-03-08T17:34:15.689Z,4.97
2018-03-08T17:36:42.679Z,4.90
2018-03-08T17:39:10.695Z,5.50
2018-03-08T17:41:38.325Z,3.73
2018-03-08T17:44:04.693Z,4.13
2018-03-08T17:46:31.974Z,7.00
2018-03-08T17:48:59.327Z,6.00
2018-03-08T17:51:26.456Z,4.10
2018-03-08T17:53:52.827Z,5.13
2018-03-08T17:56:19.533Z,3.50
2018-03-08T17:58:45.942Z,5.70
2018-03-08T18:01:12.667Z,3.30
2018-03-08T18:03:39.945Z,4.87
2018-03-08T18:06:07.207Z,3.60
2018-03-08T18:08:33.603Z,3.03
2018-03-08T18:10:59.977Z,4.07
2018-03-08T18:13:26.460Z,2.50
2018-03-08T18:15:54.025Z,2.60
2018-03-08T18:18:20.427Z,3.50
2018-03-08T18:20:46.801Z,2.87
2018-03-08T18:23:14.137Z,3.87
2018-03-08T18:25:40.972Z,2.83
2018-03-08T18:28:07.535Z,3.90
2018-03-08T18:30:34.881Z,5.80
2018-03-08T18:33:02.160Z,2.90
2018-03-08T18:35:29.944Z,4.27
2018-03-08T18:37:57.107Z,3.90
2018-03-08T18:40:23.939Z,4.27
2018-03-08T18:42:51.432Z,3.80
2018-03-08T18:45:18.410Z,3.20
2018-03-08T18:47:45.821Z,2.67
2018-03-08T18:50:13.390Z,3.70
2018-03-08T18:52:40.694Z,4.77
2018-03-08T18:55:14.779Z,3.80
2018-03-08T18:57:41.866Z,4.17
2018-03-08T19:00:08.728Z,2.93
2018-03-08T19:02:35.106Z,4.90
2018-03-08T19:05:02.360Z,4.03
2018-03-08T19:07:29.119Z,2.17
2018-03-08T19:09:55.968Z,3.63
2018-03-08T19:12:22.448Z,2.97
2018-03-08T19:14:49.636Z,3.47
2018-03-08T19:17:16.661Z,3.47
2018-03-08T19:19:43.301Z,3.60
2018-03-08T19:22:10.452Z,2.50
2018-03-08T19:24:37.393Z,3.00
2018-03-08T19:27:05.065Z,3.60
2018-03-08T19:29:31.445Z,2.80
2018-03-08T19:31:58.567Z,2.27
2018-03-08T19:34:25.051Z,2.57
2018-03-08T19:36:51.453Z,3.30
2018-03-08T19:39:18.326Z,3.60
2018-03-08T19:41:45.449Z,2.17
2018-03-08T19:44:12.336Z,4.30
2018-03-08T19:46:38.944Z,2.77
2018-03-08T19:49:05.793Z,3.13
2018-03-08T19:51:32.616Z,2.40
2018-03-08T19:53:59.038Z,3.23
2018-03-08T19:56:25.624Z,2.23
2018-03-08T19:58:52.245Z,3.80
2018-03-08T20:01:18.652Z,4.70
2018-03-08T20:03:45.594Z,2.70
2018-03-08T20:06:11.997Z,2.20
2018-03-08T20:08:38.391Z,2.57
2018-03-08T20:11:05.096Z,3.50
2018-03-08T20:13:32.229Z,2.70
2018-03-08T20:15:59.253Z,3.40
2018-03-08T20:18:26.209Z,3.73
2018-03-08T20:20:53.008Z,2.47
2018-03-08T20:23:20.538Z,2.00
2018-03-08T20:25:47.467Z,3.20
2018-03-08T20:28:13.859Z,2.50
2018-03-08T20:30:40.257Z,4.47
2018-03-08T20:33:06.794Z,4.33
2018-03-08T20:35:33.211Z,4.40
2018-03-08T20:37:59.695Z,3.40
2018-03-08T20:40:26.217Z,3.40
2018-03-08T20:42:53.058Z,3.47
2018-03-08T20:45:20.009Z,2.93
2018-03-08T20:47:47.273Z,2.10
2018-03-08T20:50:15.055Z,2.53
2018-03-08T20:52:41.909Z,2.73
2018-03-08T20:55:08.996Z,2.77
2018-03-08T20:57:35.819Z,2.40
2018-03-08T21:00:03.404Z,3.00
2018-03-08T21:02:30.396Z,3.77
2018-03-08T21:04:56.784Z,3.70
2018-03-08T21:07:23.799Z,3.13
2018-03-08T21:09:50.404Z,2.20
2018-03-08T21:12:17.283Z,2.23
2018-03-08T21:14:43.852Z,3.30
2018-03-08T21:17:10.954Z,2.70
2018-03-08T21:19:37.324Z,3.10
2018-03-08T21:22:03.855Z,2.50
2018-03-08T21:24:30.686Z,4.97
2018-03-08T21:26:57.474Z,2.83
2018-03-08T21:29:25.430Z,2.30
2018-03-08T21:31:52.624Z,1.70
2018-03-08T21:34:19.231Z,4.03
2018-03-08T21:36:46.172Z,2.57
2018-03-08T21:39:13.363Z,2.87
2018-03-08T21:41:41.059Z,3.73
2018-03-08T21:44:08.488Z,2.23
2018-03-08T21:46:35.872Z,1.70
2018-03-08T21:49:03.016Z,2.33
2018-03-08T21:51:30.137Z,2.60
2018-03-08T21:53:57.132Z,2.97
2018-03-08T21:56:23.961Z,3.10
2018-03-08T21:58:51.573Z,2.60
2018-03-08T22:01:18.513Z,3.60
2018-03-08T22:03:44.923Z,2.30
2018-03-08T22:06:13.241Z,2.00
2018-03-08T22:08:40.322Z,1.67
2018-03-08T22:11:07.343Z,3.00
2018-03-08T22:13:34.119Z,2.17
2018-03-08T22:16:02.221Z,2.70
2018-03-08T22:18:29.410Z,2.53
2018-03-08T22:20:56.672Z,3.07
2018-03-08T22:23:23.486Z,2.00
2018-03-08T22:25:50.821Z,2.53
2018-03-08T22:28:17.690Z,2.37
2018-03-08T22:30:45.728Z,2.80
2018-03-08T22:33:12.326Z,2.40
2018-03-08T22:35:39.664Z,1.83
2018-03-08T22:38:07.125Z,2.90
2018-03-08T22:40:34.226Z,2.27
2018-03-08T22:43:01.114Z,2.37
2018-03-08T22:45:28.005Z,3.50
2018-03-08T22:47:54.384Z,1.83
2018-03-08T22:50:20.930Z,2.23
2018-03-08T22:52:47.291Z,3.40
2018-03-08T22:55:15.041Z,4.93
2018-03-08T22:57:41.395Z,1.37
2018-03-08T23:00:08.526Z,2.43
2018-03-08T23:02:35.041Z,2.07
2018-03-08T23:05:01.433Z,2.73
2018-03-08T23:07:28.541Z,1.70
2018-03-08T23:09:55.101Z,2.10
2018-03-08T23:12:21.756Z,2.37
2018-03-08T23:14:48.489Z,2.97
2018-03-08T23:17:15.030Z,2.50
2018-03-08T23:19:41.433Z,1.60
2018-03-08T23:22:07.821Z,2.20
2018-03-08T23:24:34.308Z,2.23
2018-03-08T23:27:00.682Z,2.13
2018-03-08T23:29:27.467Z,2.70
2018-03-08T23:31:55.093Z,2.10
2018-03-08T23:34:22.057Z,3.00
2018-03-08T23:36:48.988Z,2.30
2018-03-08T23:39:15.826Z,2.33
2018-03-08T23:41:42.781Z,2.23
2018-03-08T23:44:09.937Z,1.73
2018-03-08T23:46:37.308Z,2.00
2018-03-08T23:49:04.656Z,3.17
2018-03-08T23:51:31.460Z,1.80
2018-03-08T23:53:58.203Z,2.70
2018-03-08T23:56:24.696Z,2.23
2018-03-08T23:58:52.564Z,2.60
